公告版位



礁溪套房出租,林小姐,0939711360,麥當勞旁,適合佛光大學學生。

目前分類:汽車、機車 (151)

瀏覽方式: 標題列表 簡短摘要
發表時間 文章標題 人氣 留言
2011-07-20 [汽車桌布]2012 Audi S5 (355) (0)
2011-07-20 [汽車桌布]2012 Toyota Yaris (1660) (0)
2011-07-20 [汽車桌布]2012 BMW 1-Series Sport Line (111) (0)
2011-07-20 [汽車桌布]2012 BMW 1-Series Urban Line (31) (0)
2011-07-20 [汽車桌布]2012 Opel Combo (14) (0)
2011-07-20 [汽車桌布]2012 Toyota Hilux (26) (0)
2011-07-20 [汽車桌布]2012 Mercedes-Benz E63 AMG Wagon (150) (0)
2011-07-20 2011年最新汽車桌布 (128) (0)
2011-01-19 Schuberth tank:坦克車也壓不壞的安全帽【圖】 (206) (0)
2010-11-18 【Win7壁紙】寶馬新X5 2011款高清17P (27) (0)
2010-09-26 桌布 - 2010 Delahaye USA Bella Figura Bugnotti Type 57S (63) (0)
2010-09-26 桌布 - 2010 Hamann BMW(寶馬) Z4 E89 (123) (0)
2010-09-26 桌布 - Audi A8(奧迪A8) (328) (0)
2010-09-26 桌布 - 2010 (俄羅斯超級跑車)Marussia B1 (109) (0)
2010-09-26 桌布 - 變形雪鐵龍 Citroen C-Metisse Concept (53) (0)
2010-09-26 桌布 - (寶馬概念超跑)BMW Concept Gran Coupe (357) (0)
2010-09-26 桌布 - BMW寶馬 328 Kamm Coupe - 1940 Mille Miglia (67) (0)
2010-09-26 桌布 - Mercedes-Benz(梅賽德斯-奔馳) Shooting Break Concept Car (39) (0)
2010-09-26 桌布 - 2010 Pininfarina(平尼法瑞阿爾法·羅米歐) Alfa Romeo 2uettottanta Spider (35) (0)
2010-09-26 桌布 - 2010 Wheelsandmore Bentley(賓利) Continental Ultrasports 702 (69) (0)
2010-09-25 汽車桌布 - Peugeot(標誌) EX1 Concept 2010 (146) (0)
2010-09-25 汽車桌布 - Porsche 911(保時捷限量跑車) Carrera Speedster 2011 (275) (0)
2010-09-25 汽車桌布 - Land Rover(路虎攬勝、陸虎攬勝) Range Rover Evoque 2011 (365) (0)
2010-09-25 汽車桌布 - Bentley(賓利) Continental GT 2012 (95) (0)
2010-09-25 汽車桌布 - Mansory Maserati Granturismo(瑪莎拉蒂跑車) 2010 (3776) (0)
2010-09-25 汽車桌布 - Jeep Patriot(吉普愛國者) 2011 (67) (0)
2010-09-25 汽車桌布 - BMW 6-Series(寶馬六系概念車) Coupe Concept 2010 (114) (0)
2010-09-07 桌布 - Audi(奧迪) TTS Coupe 2011 (50) (0)
2010-09-07 桌布 - 雪鐵龍C4 (Citroen C4) 2011 (54) (0)
2010-09-07 桌布 - Audi A3(奧迪A3) ABT AS3 (197) (0)
2010-09-07 桌布 - Renault(雷諾) Latitude 2011 (46) (0)
2010-09-07 桌布 - Mercedes Benz(奔馳) ML 63 AMG 2011 (56) (0)
2010-09-07 桌布 - (寶馬5系旅行車)BMW 5 Series Touring 2011 (100) (0)
2010-09-07 桌布 - 2011款科魯茲(Chevrolet Cruze) (28) (0)
2010-09-07 桌布 - 大眾2011款第六代捷達JETTA (32) (0)
2010-09-07 桌布 - BMW(寶馬汽車藝術設計) Art Car at 24 Hour Le Mans (51) (0)
2010-09-07 桌布 - Vauxhall Astra(沃克斯豪爾) Sports Tourer 2011 (22) (0)
2010-09-07 桌布 - Oullim Spirra 2010(韓國超跑) (29) (0)
2010-09-07 桌布 - Cadillac(凱迪拉克) CTS Coupe 2011 (27) (0)
2010-09-07 桌布 - Aston Martin(阿斯頓.馬丁) DB9 2011 (154) (0)
2010-09-07 桌布 - Mazda(馬自達) MX5 Miyako Roadster Coupe 2011 (73) (0)
2010-09-06 桌布 - Ford Mondeo(福特蒙迪歐) 2011 (179) (0)
2010-09-06 桌布 - Jaguar(捷豹) XKR 75 2011 (68) (0)
2010-09-06 桌布 - 梅賽德斯 奔馳CL-Class 2011 (38) (0)
2010-09-06 桌布 - Mercedes 奔馳 C-Class DR 520 2011 (58) (0)
2010-09-06 桌布 - Mazda MX-5 特別版 (70) (0)
2010-09-06 桌布 - Honda Accord(本田雅閣) Coupe 2011 (503) (0)
2010-09-06 桌布 - Bugatti Veyron(布加迪威龍超跑) 16.4 Super Sports Car 2011 (1167) (0)
2010-09-06 桌布 - Mercedes Benz(奔馳純電力超跑) SLS AMG E-CELL 2011 (1165) (0)
2010-09-06 桌布 - Renault DeZir(雷諾DeZir概念車) 2010 (81) (0)
1 234